createdAt,value
2023-04-15T00:00:32.178Z,42.82
2023-04-15T00:01:32.229Z,42.79
2023-04-15T00:02:32.403Z,42.80
2023-04-15T00:03:33.573Z,42.78
2023-04-15T00:04:32.457Z,42.73
2023-04-15T00:05:32.475Z,42.68
2023-04-15T00:06:32.525Z,42.70
2023-04-15T00:07:32.583Z,42.69
2023-04-15T00:08:32.633Z,42.75
2023-04-15T00:09:32.713Z,42.69
2023-04-15T00:10:32.747Z,42.67
2023-04-15T00:11:32.843Z,42.57
2023-04-15T00:12:32.872Z,42.67
2023-04-15T00:13:32.926Z,42.67
2023-04-15T00:14:32.987Z,42.68
2023-04-15T00:15:33.093Z,42.60
2023-04-15T00:16:33.213Z,42.55
2023-04-15T00:17:33.257Z,42.56
2023-04-15T00:18:33.271Z,42.50
2023-04-15T00:19:33.353Z,42.53
2023-04-15T00:20:33.368Z,42.53
2023-04-15T00:21:33.396Z,42.54
2023-04-15T00:22:33.478Z,42.52
2023-04-15T00:23:33.556Z,42.52
2023-04-15T00:24:33.597Z,42.49
2023-04-15T00:25:33.692Z,42.49
2023-04-15T00:26:33.719Z,42.46
2023-04-15T00:27:33.744Z,42.44
2023-04-15T00:28:33.798Z,42.39
2023-04-15T00:29:33.856Z,42.46
2023-04-15T00:30:33.928Z,42.48
2023-04-15T00:31:34.016Z,42.39
2023-04-15T00:32:34.048Z,42.44
2023-04-15T00:33:34.093Z,42.40
2023-04-15T00:34:34.188Z,42.39
2023-04-15T00:35:34.212Z,42.39
2023-04-15T00:36:34.257Z,42.29
2023-04-15T00:37:34.360Z,42.25
2023-04-15T00:38:34.404Z,42.27
2023-04-15T00:39:34.445Z,42.31
2023-04-15T00:40:34.517Z,42.29
2023-04-15T00:41:34.576Z,42.31
2023-04-15T00:42:34.629Z,42.23
2023-04-15T00:43:34.779Z,42.19
2023-04-15T00:44:34.776Z,42.23
2023-04-15T00:45:34.827Z,42.28
2023-04-15T00:46:34.873Z,42.17
2023-04-15T00:47:34.961Z,42.09
2023-04-15T00:48:34.983Z,42.13
2023-04-15T00:49:35.107Z,42.10
2023-04-15T00:50:35.132Z,42.15
2023-04-15T00:51:35.202Z,42.18
2023-04-15T00:52:35.275Z,42.12
2023-04-15T00:53:35.332Z,42.15
2023-04-15T00:54:35.347Z,42.13
2023-04-15T00:55:35.401Z,42.02
2023-04-15T00:56:35.481Z,42.12
2023-04-15T00:57:35.526Z,42.10
2023-04-15T00:58:35.577Z,42.07
2023-04-15T00:59:35.679Z,42.02
2023-04-15T01:00:35.706Z,42.04
2023-04-15T01:01:35.838Z,42.02
2023-04-15T01:02:35.910Z,41.99
2023-04-15T01:03:36.148Z,41.97
2023-04-15T01:04:36.018Z,41.91
2023-04-15T01:05:35.991Z,41.97
2023-04-15T01:06:36.055Z,41.88
2023-04-15T01:07:36.113Z,41.89
2023-04-15T01:08:36.204Z,41.93
2023-04-15T01:09:36.246Z,41.92
2023-04-15T01:10:36.327Z,41.89
2023-04-15T01:11:36.378Z,41.88
2023-04-15T01:12:36.456Z,41.96
2023-04-15T01:13:36.524Z,41.92
2023-04-15T01:14:36.546Z,41.85
2023-04-15T01:15:36.618Z,41.91
2023-04-15T01:16:36.691Z,41.88
2023-04-15T01:17:36.785Z,41.85
2023-04-15T01:18:36.790Z,41.79
2023-04-15T01:19:36.849Z,41.75
2023-04-15T01:20:36.912Z,41.80
2023-04-15T01:21:36.963Z,41.84
2023-04-15T01:22:37.056Z,41.80
2023-04-15T01:23:37.133Z,41.78
2023-04-15T01:24:37.166Z,41.68
2023-04-15T01:25:37.220Z,41.67
2023-04-15T01:26:37.309Z,41.72
2023-04-15T01:27:37.320Z,41.74
2023-04-15T01:28:37.413Z,41.68
2023-04-15T01:29:37.469Z,41.69
2023-04-15T01:30:37.526Z,41.71
2023-04-15T01:31:37.780Z,41.65
2023-04-15T01:32:37.681Z,41.62
2023-04-15T01:33:37.671Z,41.62
2023-04-15T01:34:37.808Z,41.63
2023-04-15T01:35:37.822Z,41.63
2023-04-15T01:36:37.864Z,41.58
2023-04-15T01:37:37.960Z,41.60
2023-04-15T01:38:37.976Z,41.55
2023-04-15T01:39:38.077Z,41.55
2023-04-15T01:40:38.140Z,41.50
2023-04-15T01:41:38.218Z,41.53
2023-04-15T01:42:38.223Z,41.46
2023-04-15T01:43:38.328Z,41.43
2023-04-15T01:44:38.356Z,41.37
2023-04-15T01:45:38.419Z,41.43
2023-04-15T01:46:38.558Z,41.49
2023-04-15T01:47:38.581Z,41.54
2023-04-15T01:48:38.621Z,41.45
2023-04-15T01:49:38.657Z,41.45
2023-04-15T01:50:38.752Z,41.43
2023-04-15T01:51:38.803Z,41.38
2023-04-15T01:52:39.365Z,41.41
2023-04-15T01:53:38.915Z,41.40
2023-04-15T01:54:38.964Z,41.42
2023-04-15T01:55:39.039Z,41.38
2023-04-15T01:56:39.120Z,41.33
2023-04-15T01:57:39.123Z,41.31
2023-04-15T01:58:39.186Z,41.37
2023-04-15T01:59:39.242Z,41.32
2023-04-15T02:00:39.309Z,41.37
2023-04-15T02:01:39.377Z,41.22
2023-04-15T02:02:39.573Z,41.25
2023-04-15T02:03:39.613Z,41.28
2023-04-15T02:04:39.545Z,41.31
2023-04-15T02:05:39.624Z,41.33
2023-04-15T02:06:39.677Z,41.23
2023-04-15T02:07:39.826Z,41.22
2023-04-15T02:08:39.850Z,41.21
2023-04-15T02:09:39.854Z,41.23
2023-04-15T02:10:39.931Z,41.25
2023-04-15T02:11:39.949Z,41.23
2023-04-15T02:12:40.023Z,41.26
2023-04-15T02:13:40.068Z,41.19
2023-04-15T02:14:40.164Z,41.17
2023-04-15T02:15:40.184Z,41.22
2023-04-15T02:16:40.289Z,41.09
2023-04-15T02:17:40.343Z,41.15
2023-04-15T02:18:40.405Z,41.14
2023-04-15T02:19:40.481Z,41.16
2023-04-15T02:20:40.503Z,41.09
2023-04-15T02:21:40.577Z,41.07
2023-04-15T02:22:40.647Z,41.06
2023-04-15T02:23:40.706Z,41.01
2023-04-15T02:24:40.755Z,41.01
2023-04-15T02:25:40.815Z,41.03
2023-04-15T02:26:40.867Z,41.06
2023-04-15T02:27:40.923Z,41.07
2023-04-15T02:28:41.004Z,41.02
2023-04-15T02:29:41.067Z,41.03
2023-04-15T02:30:41.120Z,40.96
2023-04-15T02:31:41.216Z,40.97
2023-04-15T02:32:41.250Z,40.97
2023-04-15T02:33:41.301Z,41.04
2023-04-15T02:34:41.343Z,40.99
2023-04-15T02:35:41.427Z,40.96
2023-04-15T02:36:41.485Z,40.95
2023-04-15T02:37:41.559Z,40.93
2023-04-15T02:38:41.584Z,40.88
2023-04-15T02:39:41.681Z,40.90
2023-04-15T02:40:41.724Z,40.86
2023-04-15T02:41:41.808Z,40.94
2023-04-15T02:42:41.824Z,40.93
2023-04-15T02:43:41.913Z,40.88
2023-04-15T02:44:41.995Z,40.90
2023-04-15T02:45:42.047Z,40.91
2023-04-15T02:46:42.116Z,40.90
2023-04-15T02:47:42.200Z,40.85
2023-04-15T02:48:42.240Z,40.85
2023-04-15T02:49:42.302Z,40.85
2023-04-15T02:50:42.334Z,40.75
2023-04-15T02:51:42.392Z,40.79
2023-04-15T02:52:42.429Z,40.84
2023-04-15T02:53:42.464Z,40.82
2023-04-15T02:54:42.551Z,40.86
2023-04-15T02:55:42.547Z,40.80
2023-04-15T02:56:42.603Z,40.79
2023-04-15T02:57:42.697Z,40.74
2023-04-15T02:58:42.700Z,40.79
2023-04-15T02:59:42.776Z,40.77
2023-04-15T03:00:42.832Z,40.73
2023-04-15T03:01:43.072Z,40.70
2023-04-15T03:02:43.194Z,40.67
2023-04-15T03:03:43.074Z,40.74
2023-04-15T03:04:43.071Z,40.67
2023-04-15T03:05:43.055Z,40.71
2023-04-15T03:06:43.104Z,40.74
2023-04-15T03:07:43.125Z,40.73
2023-04-15T03:08:43.187Z,40.67
2023-04-15T03:09:43.259Z,40.65
2023-04-15T03:10:43.367Z,40.66
2023-04-15T03:11:43.334Z,40.61
2023-04-15T03:12:43.440Z,40.51
2023-04-15T03:13:43.472Z,40.55
2023-04-15T03:14:43.517Z,40.63
2023-04-15T03:15:43.546Z,40.66
2023-04-15T03:16:44.361Z,40.68
2023-04-15T03:17:43.702Z,40.62
2023-04-15T03:18:43.679Z,40.62
2023-04-15T03:19:43.786Z,40.59
2023-04-15T03:20:43.852Z,40.60
2023-04-15T03:21:43.852Z,40.62
2023-04-15T03:22:43.875Z,40.62
2023-04-15T03:23:43.950Z,40.51
2023-04-15T03:24:43.965Z,40.55
2023-04-15T03:25:43.996Z,40.55
2023-04-15T03:26:44.052Z,40.58
2023-04-15T03:27:44.077Z,40.53
2023-04-15T03:28:44.138Z,40.51
2023-04-15T03:29:44.175Z,40.44
2023-04-15T03:30:44.220Z,40.47
2023-04-15T03:31:44.210Z,40.51
2023-04-15T03:32:44.280Z,40.50
2023-04-15T03:33:44.301Z,40.46
2023-04-15T03:34:44.338Z,40.43
2023-04-15T03:35:44.381Z,40.38
2023-04-15T03:36:44.418Z,40.39
2023-04-15T03:37:44.465Z,40.45
2023-04-15T03:38:44.515Z,40.47
2023-04-15T03:39:44.576Z,40.45
2023-04-15T03:40:44.617Z,40.34
2023-04-15T03:41:44.639Z,40.42
2023-04-15T03:42:44.646Z,40.42
2023-04-15T03:43:44.665Z,40.47
2023-04-15T03:44:44.679Z,40.43
2023-04-15T03:45:44.691Z,40.35
2023-04-15T03:46:44.707Z,40.29
2023-04-15T03:47:44.760Z,40.33
2023-04-15T03:48:44.745Z,40.31
2023-04-15T03:49:44.744Z,40.36
2023-04-15T03:50:44.745Z,40.30
2023-04-15T03:51:44.727Z,40.30
2023-04-15T03:52:44.880Z,40.27
2023-04-15T03:53:44.792Z,40.30
2023-04-15T03:54:44.829Z,40.28
2023-04-15T03:55:44.889Z,40.27
2023-04-15T03:56:44.870Z,40.24
2023-04-15T03:57:44.945Z,40.19
2023-04-15T03:58:45.006Z,40.22
2023-04-15T03:59:45.011Z,40.27
2023-04-15T04:00:45.066Z,40.27
2023-04-15T04:01:45.199Z,40.29
2023-04-15T04:02:45.292Z,40.17
2023-04-15T04:03:45.305Z,40.20
2023-04-15T04:04:45.238Z,40.13
2023-04-15T04:05:45.225Z,40.17
2023-04-15T04:06:45.271Z,40.23
2023-04-15T04:07:45.327Z,40.15
2023-04-15T04:08:45.362Z,40.10
2023-04-15T04:09:47.041Z,40.04
2023-04-15T04:10:45.405Z,40.10
2023-04-15T04:11:45.503Z,40.16
2023-04-15T04:12:45.511Z,40.19
2023-04-15T04:13:45.590Z,40.06
2023-04-15T04:14:45.626Z,40.04
2023-04-15T04:15:45.635Z,40.13
2023-04-15T04:16:45.675Z,40.11
2023-04-15T04:17:45.701Z,40.15
2023-04-15T04:18:45.723Z,40.11
2023-04-15T04:19:45.767Z,40.11
2023-04-15T04:20:45.781Z,40.11
2023-04-15T04:21:45.774Z,40.06
2023-04-15T04:22:45.777Z,40.12
2023-04-15T04:23:45.816Z,40.11
2023-04-15T04:24:45.833Z,40.07
2023-04-15T04:25:45.885Z,40.01
2023-04-15T04:26:45.939Z,40.07
2023-04-15T04:27:45.993Z,40.09
2023-04-15T04:28:46.021Z,39.98
2023-04-15T04:29:46.036Z,40.04
2023-04-15T04:30:46.042Z,40.01
2023-04-15T04:31:46.124Z,40.02
2023-04-15T04:32:46.200Z,40.08
2023-04-15T04:33:46.168Z,39.94
2023-04-15T04:34:46.191Z,40.01
2023-04-15T04:35:46.258Z,40.03
2023-04-15T04:36:46.337Z,40.07
2023-04-15T04:37:46.387Z,39.95
2023-04-15T04:38:46.453Z,39.84
2023-04-15T04:39:46.457Z,39.82
2023-04-15T04:40:46.500Z,39.85
2023-04-15T04:41:46.582Z,40.00
2023-04-15T04:42:46.633Z,40.01
2023-04-15T04:43:46.635Z,39.98
2023-04-15T04:44:46.648Z,39.94
2023-04-15T04:45:46.726Z,39.78
2023-04-15T04:46:46.765Z,39.84
2023-04-15T04:47:46.879Z,39.96
2023-04-15T04:48:47.252Z,39.89
2023-04-15T04:49:46.847Z,39.90
2023-04-15T04:50:46.967Z,39.85
2023-04-15T04:51:46.971Z,39.86
2023-04-15T04:52:47.024Z,39.78
2023-04-15T04:53:47.065Z,39.84
2023-04-15T04:54:47.079Z,39.82
2023-04-15T04:55:47.106Z,39.74
2023-04-15T04:56:47.131Z,39.63
2023-04-15T04:57:47.115Z,39.76
2023-04-15T04:58:47.151Z,39.76
2023-04-15T04:59:47.183Z,39.65
2023-04-15T05:00:47.152Z,39.72
2023-04-15T05:01:47.173Z,39.69
2023-04-15T05:02:47.336Z,39.76
2023-04-15T05:03:47.293Z,39.72
2023-04-15T05:04:47.220Z,39.65
2023-04-15T05:05:47.199Z,39.67
2023-04-15T05:06:47.247Z,39.76
2023-04-15T05:07:47.258Z,39.72
2023-04-15T05:08:47.310Z,39.73
2023-04-15T05:09:47.340Z,39.65
2023-04-15T05:10:47.338Z,39.64
2023-04-15T05:11:47.428Z,39.46
2023-04-15T05:12:47.436Z,39.50
2023-04-15T05:13:47.478Z,39.50
2023-04-15T05:14:47.554Z,39.58
2023-04-15T05:15:47.603Z,39.55
2023-04-15T05:16:47.600Z,39.54
2023-04-15T05:17:47.714Z,39.55
2023-04-15T05:18:47.639Z,39.65
2023-04-15T05:19:47.671Z,39.52
2023-04-15T05:20:47.665Z,39.52
2023-04-15T05:21:47.708Z,39.56
2023-04-15T05:22:47.671Z,39.54
2023-04-15T05:23:47.728Z,39.49
2023-04-15T05:24:47.694Z,39.49
2023-04-15T05:25:47.708Z,39.50
2023-04-15T05:26:47.713Z,39.51
2023-04-15T05:27:47.659Z,39.45
2023-04-15T05:28:47.688Z,39.42
2023-04-15T05:29:47.703Z,39.46
2023-04-15T05:30:47.740Z,39.46
2023-04-15T05:31:47.659Z,39.37
2023-04-15T05:32:47.641Z,39.43
2023-04-15T05:33:47.642Z,39.45
2023-04-15T05:34:47.654Z,39.42
2023-04-15T05:35:47.645Z,39.26
2023-04-15T05:36:47.631Z,39.34
2023-04-15T05:37:47.620Z,39.32
2023-04-15T05:38:47.632Z,39.28
2023-04-15T05:39:47.638Z,39.33
2023-04-15T05:40:47.682Z,39.37
2023-04-15T05:41:47.710Z,39.37
2023-04-15T05:42:47.715Z,39.32
2023-04-15T05:43:47.788Z,39.32
2023-04-15T05:44:47.771Z,39.27
2023-04-15T05:45:47.790Z,39.21
2023-04-15T05:46:47.738Z,39.20
2023-04-15T05:47:47.790Z,39.24
2023-04-15T05:48:47.759Z,39.15
2023-04-15T05:49:47.771Z,39.23
2023-04-15T05:50:47.752Z,39.25
2023-04-15T05:51:48.483Z,39.27
2023-04-15T05:52:47.775Z,39.17
2023-04-15T05:53:47.782Z,39.14
2023-04-15T05:54:47.768Z,39.14
2023-04-15T05:55:47.788Z,39.14
2023-04-15T05:56:47.751Z,39.08
2023-04-15T05:57:47.762Z,39.13
2023-04-15T05:58:47.787Z,39.13
2023-04-15T05:59:47.851Z,39.11
2023-04-15T06:00:47.840Z,39.04
2023-04-15T06:01:47.896Z,39.02
2023-04-15T06:02:47.986Z,39.05
2023-04-15T06:03:47.928Z,39.05
2023-04-15T06:04:47.946Z,39.11
2023-04-15T06:05:47.863Z,39.11
2023-04-15T06:06:47.839Z,39.09
2023-04-15T06:07:48.709Z,39.11
2023-04-15T06:08:47.859Z,39.13
2023-04-15T06:09:47.862Z,39.05
2023-04-15T06:10:47.853Z,39.01
2023-04-15T06:11:47.908Z,38.97
2023-04-15T06:12:47.913Z,38.97
2023-04-15T06:13:47.927Z,38.93
2023-04-15T06:14:47.937Z,38.95
2023-04-15T06:15:48.005Z,38.90
2023-04-15T06:16:47.963Z,38.89
2023-04-15T06:17:47.952Z,38.93
2023-04-15T06:18:47.924Z,38.92
2023-04-15T06:19:47.927Z,38.87
2023-04-15T06:20:47.920Z,38.83
2023-04-15T06:21:47.917Z,38.94
2023-04-15T06:22:47.951Z,38.97
2023-04-15T06:23:47.982Z,38.84
2023-04-15T06:24:47.949Z,38.82
2023-04-15T06:25:47.983Z,38.84
2023-04-15T06:26:47.998Z,38.84
2023-04-15T06:27:48.052Z,38.85
2023-04-15T06:28:48.125Z,38.89
2023-04-15T06:29:48.173Z,38.84
2023-04-15T06:30:48.187Z,38.84
2023-04-15T06:31:48.275Z,38.71
2023-04-15T06:32:48.316Z,38.75
2023-04-15T06:33:48.309Z,38.84
2023-04-15T06:34:48.335Z,38.84
2023-04-15T06:35:48.347Z,38.78
2023-04-15T06:36:48.408Z,38.78
2023-04-15T06:37:48.464Z,38.75
2023-04-15T06:38:48.524Z,38.73
2023-04-15T06:39:48.585Z,38.76
2023-04-15T06:40:48.695Z,38.74
2023-04-15T06:41:48.632Z,38.71
2023-04-15T06:42:48.705Z,38.66
2023-04-15T06:43:48.724Z,38.62
2023-04-15T06:44:48.768Z,38.66
2023-04-15T06:45:48.851Z,38.61
2023-04-15T06:46:48.848Z,38.59
2023-04-15T06:47:48.968Z,38.56
2023-04-15T06:48:48.924Z,38.54
2023-04-15T06:49:49.011Z,38.56
2023-04-15T06:50:49.045Z,38.56
2023-04-15T06:51:49.136Z,38.60
2023-04-15T06:52:49.163Z,38.60
2023-04-15T06:53:49.212Z,38.53
2023-04-15T06:54:49.278Z,38.52
2023-04-15T06:55:49.326Z,38.48
2023-04-15T06:56:49.378Z,38.48
2023-04-15T06:57:49.344Z,38.48
2023-04-15T06:58:49.372Z,38.43
2023-04-15T06:59:49.482Z,38.44
2023-04-15T07:00:49.506Z,38.43
2023-04-15T07:01:49.556Z,38.35
2023-04-15T07:02:49.561Z,38.35
2023-04-15T07:03:49.628Z,38.26
2023-04-15T07:04:49.644Z,38.32
2023-04-15T07:05:49.733Z,38.29
2023-04-15T07:06:49.750Z,38.24
2023-04-15T07:07:49.780Z,38.17
2023-04-15T07:08:49.843Z,38.19
2023-04-15T07:09:49.930Z,38.19
2023-04-15T07:10:49.983Z,38.18
2023-04-15T07:11:50.040Z,38.12
2023-04-15T07:12:50.142Z,38.05
2023-04-15T07:13:50.180Z,38.08
2023-04-15T07:14:50.207Z,38.08
2023-04-15T07:15:50.298Z,38.03
2023-04-15T07:16:50.351Z,38.03
2023-04-15T07:17:50.427Z,37.93
2023-04-15T07:18:50.423Z,37.92
2023-04-15T07:19:50.529Z,37.93
2023-04-15T07:20:50.538Z,37.85
2023-04-15T07:21:50.612Z,37.83
2023-04-15T07:22:50.662Z,37.73
2023-04-15T07:23:50.717Z,37.78
2023-04-15T07:24:50.780Z,37.70
2023-04-15T07:25:50.828Z,37.73
2023-04-15T07:26:50.910Z,37.68
2023-04-15T07:27:50.977Z,37.63
2023-04-15T07:28:51.042Z,37.66
2023-04-15T07:29:51.113Z,37.65
2023-04-15T07:30:51.205Z,37.60
2023-04-15T07:31:51.211Z,37.59
2023-04-15T07:32:51.297Z,37.54
2023-04-15T07:33:51.339Z,37.52
2023-04-15T07:34:51.409Z,37.51
2023-04-15T07:35:51.473Z,37.46
2023-04-15T07:36:51.522Z,37.48
2023-04-15T07:37:51.598Z,37.45
2023-04-15T07:38:51.657Z,37.34
2023-04-15T07:39:51.695Z,37.37
2023-04-15T07:40:51.796Z,37.42
2023-04-15T07:41:51.833Z,37.38
2023-04-15T07:42:51.865Z,37.36
2023-04-15T07:43:51.961Z,37.39
2023-04-15T07:44:52.066Z,37.37
2023-04-15T07:45:52.095Z,37.32
2023-04-15T07:46:52.153Z,37.34
2023-04-15T07:47:52.228Z,37.32
2023-04-15T07:48:52.251Z,37.31
2023-04-15T07:49:52.316Z,37.28
2023-04-15T07:50:52.378Z,37.24
2023-04-15T07:51:52.452Z,37.24
2023-04-15T07:52:52.468Z,37.28
2023-04-15T07:53:52.560Z,37.28
2023-04-15T07:54:52.634Z,37.26
2023-04-15T07:55:52.669Z,37.22
2023-04-15T07:56:52.747Z,37.24
2023-04-15T07:57:52.820Z,37.23
2023-04-15T07:58:52.852Z,37.22
2023-04-15T07:59:52.909Z,37.19
2023-04-15T08:00:53.005Z,37.17
2023-04-15T08:01:53.044Z,37.20
2023-04-15T08:02:53.219Z,37.20
2023-04-15T08:03:53.328Z,37.17
2023-04-15T08:04:53.445Z,37.17
2023-04-15T08:05:53.296Z,37.14
2023-04-15T08:06:53.350Z,37.11
2023-04-15T08:07:53.444Z,37.12
2023-04-15T08:08:53.508Z,37.12
2023-04-15T08:09:53.554Z,37.04
2023-04-15T08:10:53.705Z,37.03
2023-04-15T08:11:53.664Z,37.06
2023-04-15T08:12:53.718Z,37.07
2023-04-15T08:13:53.792Z,37.04
2023-04-15T08:14:53.878Z,37.04
2023-04-15T08:15:53.971Z,37.04
2023-04-15T08:16:53.993Z,37.01
2023-04-15T08:17:54.106Z,36.99
2023-04-15T08:18:54.084Z,37.01
2023-04-15T08:19:54.140Z,36.98
2023-04-15T08:20:54.198Z,36.99
2023-04-15T08:21:54.289Z,36.89
2023-04-15T08:22:54.280Z,36.91
2023-04-15T08:23:54.355Z,36.88
2023-04-15T08:24:54.403Z,36.92
2023-04-15T08:25:54.488Z,36.85
2023-04-15T08:26:54.516Z,36.91
2023-04-15T08:27:54.600Z,36.91
2023-04-15T08:28:54.657Z,36.91
2023-04-15T08:29:54.736Z,36.92
2023-04-15T08:30:54.735Z,36.88
2023-04-15T08:31:54.971Z,36.88
2023-04-15T08:32:55.560Z,36.83
2023-04-15T08:33:54.936Z,36.86
2023-04-15T08:34:54.997Z,36.85
2023-04-15T08:35:55.019Z,36.78
2023-04-15T08:36:55.094Z,36.81
2023-04-15T08:37:55.153Z,36.86
2023-04-15T08:38:55.235Z,36.80
2023-04-15T08:39:55.238Z,36.81
2023-04-15T08:40:55.314Z,36.78
2023-04-15T08:41:55.379Z,36.79
2023-04-15T08:42:55.411Z,36.86
2023-04-15T08:43:55.445Z,36.85
2023-04-15T08:44:55.542Z,36.82
2023-04-15T08:45:55.562Z,36.81
2023-04-15T08:46:55.617Z,36.75
2023-04-15T08:47:55.688Z,36.79
2023-04-15T08:48:55.741Z,36.77
2023-04-15T08:49:55.768Z,36.79
2023-04-15T08:50:55.832Z,36.79
2023-04-15T08:51:55.889Z,36.78
2023-04-15T08:52:55.937Z,36.82
2023-04-15T08:53:55.974Z,36.81
2023-04-15T08:54:56.063Z,36.72
2023-04-15T08:55:56.106Z,36.79
2023-04-15T08:56:56.203Z,36.77
2023-04-15T08:57:56.206Z,36.80
2023-04-15T08:58:56.264Z,36.79
2023-04-15T08:59:56.306Z,36.79
2023-04-15T09:00:56.367Z,36.79
2023-04-15T09:01:56.403Z,36.74
2023-04-15T09:02:56.489Z,36.74
2023-04-15T09:03:56.558Z,36.71
2023-04-15T09:04:56.577Z,36.71
2023-04-15T09:05:56.563Z,36.68
2023-04-15T09:06:56.617Z,36.66
2023-04-15T09:07:56.712Z,36.65
2023-04-15T09:08:56.722Z,36.71
2023-04-15T09:09:56.775Z,36.68
2023-04-15T09:10:56.809Z,36.74
2023-04-15T09:11:56.915Z,36.72
2023-04-15T09:12:56.887Z,36.68
2023-04-15T09:13:56.927Z,36.68
2023-04-15T09:14:56.969Z,36.60
2023-04-15T09:15:56.986Z,36.60
2023-04-15T09:16:57.201Z,36.60
2023-04-15T09:17:57.180Z,36.59
2023-04-15T09:18:57.139Z,36.51
2023-04-15T09:19:57.165Z,36.54
2023-04-15T09:20:57.231Z,36.50
2023-04-15T09:21:58.780Z,36.46
2023-04-15T09:22:57.338Z,36.39
2023-04-15T09:23:57.357Z,36.36
2023-04-15T09:24:57.419Z,36.39
2023-04-15T09:25:57.430Z,36.32
2023-04-15T09:26:57.441Z,36.26
2023-04-15T09:27:57.486Z,36.26
2023-04-15T09:28:57.539Z,36.21
2023-04-15T09:29:57.591Z,36.23
2023-04-15T09:30:57.638Z,36.21
2023-04-15T09:31:57.626Z,36.21
2023-04-15T09:32:57.740Z,36.19
2023-04-15T09:33:57.690Z,36.19
2023-04-15T09:34:57.727Z,36.20
2023-04-15T09:35:57.742Z,36.19
2023-04-15T09:36:57.810Z,36.21
2023-04-15T09:37:57.824Z,36.20
2023-04-15T09:38:58.543Z,36.15
2023-04-15T09:39:57.948Z,36.11
2023-04-15T09:40:57.975Z,36.15
2023-04-15T09:41:57.994Z,36.16
2023-04-15T09:42:58.007Z,36.15
2023-04-15T09:43:58.083Z,36.09
2023-04-15T09:44:58.128Z,36.08
2023-04-15T09:45:58.117Z,36.14
2023-04-15T09:46:58.179Z,36.10
2023-04-15T09:47:59.124Z,36.13
2023-04-15T09:48:58.226Z,36.12
2023-04-15T09:49:58.304Z,36.06
2023-04-15T09:50:58.301Z,36.09
2023-04-15T09:52:05.068Z,36.12
2023-04-15T09:52:59.329Z,36.06
2023-04-15T09:53:58.285Z,36.10
2023-04-15T09:54:58.328Z,36.11
2023-04-15T09:55:58.298Z,36.07
2023-04-15T09:56:58.292Z,36.06
2023-04-15T09:57:58.269Z,36.09
2023-04-15T09:58:58.283Z,36.07
2023-04-15T09:59:58.293Z,36.06
2023-04-15T10:00:58.359Z,36.06
2023-04-15T10:01:58.460Z,36.05
2023-04-15T10:02:58.364Z,36.05
2023-04-15T10:03:58.273Z,36.00
2023-04-15T10:04:58.222Z,36.08
2023-04-15T10:05:58.300Z,36.06
2023-04-15T10:06:58.305Z,36.01
2023-04-15T10:07:58.347Z,36.02
2023-04-15T10:08:59.049Z,36.00
2023-04-15T10:09:58.427Z,36.00
2023-04-15T10:10:58.438Z,35.96
2023-04-15T10:11:58.467Z,35.93
2023-04-15T10:12:58.525Z,35.96
2023-04-15T10:13:58.551Z,36.01
2023-04-15T10:14:58.597Z,35.95
2023-04-15T10:15:58.681Z,35.98
2023-04-15T10:16:58.686Z,35.95
2023-04-15T10:17:58.746Z,35.96
2023-04-15T10:18:58.727Z,35.97
2023-04-15T10:19:58.765Z,35.97
2023-04-15T10:20:58.813Z,35.96
2023-04-15T10:21:58.805Z,35.92
2023-04-15T10:22:58.869Z,35.91
2023-04-15T10:23:58.901Z,35.91
2023-04-15T10:24:58.917Z,35.93
2023-04-15T10:25:58.993Z,35.89
2023-04-15T10:26:58.999Z,35.90
2023-04-15T10:27:59.014Z,35.87
2023-04-15T10:29:00.183Z,35.83
2023-04-15T10:29:59.076Z,35.86
2023-04-15T10:30:59.133Z,35.83
2023-04-15T10:31:59.120Z,35.87
2023-04-15T10:32:59.174Z,35.87
2023-04-15T10:33:59.207Z,35.83
2023-04-15T10:34:59.232Z,35.82
2023-04-15T10:35:59.277Z,35.78
2023-04-15T10:36:59.291Z,35.86
2023-04-15T10:37:59.331Z,35.78
2023-04-15T10:38:59.383Z,35.72
2023-04-15T10:39:59.382Z,35.72
2023-04-15T10:40:59.458Z,35.77
2023-04-15T10:41:59.463Z,35.82
2023-04-15T10:42:59.514Z,35.79
2023-04-15T10:43:59.515Z,35.76
2023-04-15T10:44:59.565Z,35.72
2023-04-15T10:45:59.599Z,35.76
2023-04-15T10:46:59.689Z,35.72
2023-04-15T10:48:00.986Z,35.71
2023-04-15T10:48:59.791Z,35.70
2023-04-15T10:49:59.786Z,35.66
2023-04-15T10:50:59.887Z,35.65
2023-04-15T10:51:59.880Z,35.61
2023-04-15T10:52:59.892Z,35.61
2023-04-15T10:53:59.969Z,35.58
2023-04-15T10:54:59.913Z,35.57
2023-04-15T10:55:59.938Z,35.57
2023-04-15T10:56:59.968Z,35.58
2023-04-15T10:57:59.970Z,35.61
2023-04-15T10:59:00.017Z,35.54
2023-04-15T11:00:00.153Z,35.54
2023-04-15T11:01:00.137Z,35.54
2023-04-15T11:02:00.454Z,35.53
2023-04-15T11:03:00.299Z,35.55
2023-04-15T11:04:00.212Z,35.51
2023-04-15T11:05:00.245Z,35.51
2023-04-15T11:06:00.236Z,35.54
2023-04-15T11:07:00.250Z,35.53
2023-04-15T11:08:00.260Z,35.57
2023-04-15T11:09:00.300Z,35.54
2023-04-15T11:10:00.318Z,35.51
2023-04-15T11:11:00.372Z,35.44
2023-04-15T11:12:00.380Z,35.45
2023-04-15T11:13:00.385Z,35.46
2023-04-15T11:14:00.524Z,35.48
2023-04-15T11:15:00.448Z,35.44
2023-04-15T11:16:00.476Z,35.45
2023-04-15T11:17:00.460Z,35.45
2023-04-15T11:18:00.561Z,35.45
2023-04-15T11:19:00.527Z,35.42
2023-04-15T11:20:00.567Z,35.39
2023-04-15T11:21:00.569Z,35.39
2023-04-15T11:22:00.582Z,35.36
2023-04-15T11:23:14.400Z,35.36
2023-04-15T11:24:02.361Z,35.36
2023-04-15T11:25:00.597Z,35.38
2023-04-15T11:26:00.579Z,35.31
2023-04-15T11:27:00.562Z,35.28
2023-04-15T11:28:00.584Z,35.24
2023-04-15T11:29:00.539Z,35.29
2023-04-15T11:30:00.552Z,35.28
2023-04-15T11:31:00.536Z,35.28
2023-04-15T11:32:00.603Z,35.25
2023-04-15T11:33:00.527Z,35.25
2023-04-15T11:34:00.537Z,35.28
2023-04-15T11:35:00.507Z,35.23
2023-04-15T11:36:00.517Z,35.24
2023-04-15T11:37:00.507Z,35.20
2023-04-15T11:38:00.513Z,35.20
2023-04-15T11:39:00.476Z,35.20
2023-04-15T11:40:00.478Z,35.25
2023-04-15T11:41:00.474Z,35.27
2023-04-15T11:42:00.470Z,35.23
2023-04-15T11:43:00.436Z,35.28
2023-04-15T11:44:00.532Z,35.28
2023-04-15T11:45:00.422Z,35.25
2023-04-15T11:46:00.488Z,35.26
2023-04-15T11:47:00.450Z,35.25
2023-04-15T11:48:00.535Z,35.25
2023-04-15T11:49:00.458Z,35.24
2023-04-15T11:50:00.442Z,35.24
2023-04-15T11:51:00.424Z,35.26
2023-04-15T11:52:00.426Z,35.25
2023-04-15T11:53:00.429Z,35.30
2023-04-15T11:54:00.404Z,35.28
2023-04-15T11:55:00.382Z,35.33
2023-04-15T11:56:00.393Z,35.33
2023-04-15T11:57:00.367Z,35.29
2023-04-15T11:58:00.349Z,35.26
2023-04-15T11:59:00.365Z,35.29
2023-04-15T12:00:00.392Z,35.24
2023-04-15T12:01:00.411Z,35.24
2023-04-15T12:02:00.486Z,35.19
2023-04-15T12:03:00.483Z,35.25
2023-04-15T12:04:00.369Z,35.25
2023-04-15T12:05:00.359Z,35.22
2023-04-15T12:06:00.319Z,35.19
2023-04-15T12:07:00.300Z,35.26
2023-04-15T12:08:00.325Z,35.21
2023-04-15T12:09:00.373Z,35.25
2023-04-15T12:10:00.283Z,35.22
2023-04-15T12:11:00.276Z,35.19
2023-04-15T12:12:00.270Z,35.19
2023-04-15T12:13:00.228Z,35.16
2023-04-15T12:14:00.248Z,35.18
2023-04-15T12:15:00.304Z,35.17
2023-04-15T12:16:00.253Z,35.16
2023-04-15T12:17:00.592Z,35.17
2023-04-15T12:18:00.319Z,35.13
2023-04-15T12:19:00.212Z,35.17
2023-04-15T12:20:00.225Z,35.12
2023-04-15T12:21:00.212Z,35.12
2023-04-15T12:22:00.640Z,35.12
2023-04-15T12:23:00.172Z,35.16
2023-04-15T12:24:00.193Z,35.12
2023-04-15T12:25:00.174Z,35.11
2023-04-15T12:26:00.172Z,35.16
2023-04-15T12:27:00.197Z,35.10
2023-04-15T12:28:00.174Z,35.15
2023-04-15T12:29:00.145Z,35.08
2023-04-15T12:30:00.146Z,35.08
2023-04-15T12:31:00.156Z,35.12
2023-04-15T12:32:00.125Z,35.12
2023-04-15T12:33:00.127Z,35.12
2023-04-15T12:34:00.178Z,35.13
2023-04-15T12:35:00.106Z,35.15
2023-04-15T12:36:00.141Z,35.14
2023-04-15T12:37:00.088Z,35.13
2023-04-15T12:38:00.119Z,35.11
2023-04-15T12:39:00.122Z,35.09
2023-04-15T12:40:00.086Z,35.13
2023-04-15T12:41:00.373Z,35.18
2023-04-15T12:42:00.179Z,35.16
2023-04-15T12:43:00.024Z,35.17
2023-04-15T12:44:00.039Z,35.16
2023-04-15T12:45:00.037Z,35.16
2023-04-15T12:46:00.046Z,35.17
2023-04-15T12:47:00.409Z,35.18
2023-04-15T12:48:00.067Z,35.18
2023-04-15T12:49:00.120Z,35.19
2023-04-15T12:50:00.152Z,35.18
2023-04-15T12:51:00.154Z,35.19
2023-04-15T12:52:00.162Z,35.19
2023-04-15T12:53:00.169Z,35.22